Flight Track Log - Related Links

Times and Time Zones

All times are in EDT time to prevent confusion due to time zone crossing. See the SKQ225 flight status page for this flight to view local times or setup timezone preferences in your user account.


Time Position Orientation Groundspeed Altitude Reporting Facility
EDT Latitude Longitude Course Direction KTS MPH feet Rate Location/Type
Tue 02:09:49 AM 40.0769 -83.1094 230° Southwest 119 137 1,900  Level Indianapolis Center
Tue 02:10:43 AM 40.0558 -83.1422 230° Southwest 129 148 2,800 977 Climbing Indianapolis Center
Tue 02:11:15 AM 40.0419 -83.1614 227° Southwest 129 148 3,300 1,180 Climbing Indianapolis Center
Tue 02:11:44 AM 40.0319 -83.1831 239° Southwest 125 144 4,000 1,300 Climbing Indianapolis Center
Tue 02:12:15 AM 40.0217 -83.1975 227° Southwest 126 145 4,600 1,100 Climbing Indianapolis Center
Tue 02:12:44 AM 40.0092 -83.2103 218° Southwest 117 135 5,100 1,000 Climbing Indianapolis Center
Tue 02:13:15 AM 39.9981 -83.2269 229° Southwest 119 137 5,600 984 Climbing Indianapolis Center
Tue 02:13:45 AM 39.9858 -83.2431 225° Southwest 123 142 6,100 885 Climbing Indianapolis Center
Tue 02:14:16 AM 39.9786 -83.2556 233° Southwest 122 140 6,500 900 Climbing Indianapolis Center
Tue 02:14:45 AM 39.9603 -83.2781 223° Southwest 136 157 7,000 900 Climbing Indianapolis Center
Tue 02:15:16 AM 39.9517 -83.2914 230° Southwest 134 154 7,400 984 Climbing Indianapolis Center
Tue 02:15:46 AM 39.9325 -83.3183 227° Southwest 149 171 8,000 600 Climbing Indianapolis Center
Tue 02:16:16 AM 39.9225 -83.3336 230° Southwest 149 171 8,000  Level Indianapolis Center
Tue 02:16:47 AM 39.8997 -83.3658 227° Southwest 195 224 8,000 100 Level Indianapolis Center
Tue 02:17:16 AM 39.8867 -83.3847 228° Southwest 181 208 8,100  Climbing Indianapolis Center
Tue 02:17:47 AM 39.8644 -83.4189 230° Southwest 199 229 8,000 -100 Descending Indianapolis Center
Tue 02:18:16 AM 39.8494 -83.4378 224° Southwest 193 222 8,000  Level Indianapolis Center
Tue 02:18:48 AM 39.8250 -83.4739 229° Southwest 193 222 8,000  Level Indianapolis Center
Tue 02:19:17 AM 39.8103 -83.4936 226° Southwest 196 226 8,000  Level Indianapolis Center
Tue 02:19:48 AM 39.7897 -83.5264 231° Southwest 196 226 8,000  Level Indianapolis Center
Tue 02:20:17 AM 39.7736 -83.5464 224° Southwest 195 224 8,000  Level Indianapolis Center
Tue 02:20:49 AM 39.7525 -83.5761 227° Southwest 195 224 8,000  Level Indianapolis Center
Tue 02:21:17 AM 39.7358 -83.5992 227° Southwest 196 226 8,000  Level Indianapolis Center
Tue 02:21:50 AM 39.7131 -83.6283 225° Southwest 197 227 8,000  Level Indianapolis Center
Tue 02:22:17 AM 39.6989 -83.6519 232° Southwest 196 226 8,000  Level Indianapolis Center
Tue 02:22:44 AM 39.6803 -83.6758 225° Southwest 197 227 8,000  Level Indianapolis Center
Tue 02:23:17 AM 39.6611 -83.7056 230° Southwest 198 228 8,000  Level Indianapolis Center
Tue 02:23:45 AM 39.6428 -83.7281 223° Southwest 197 227 8,000  Level Indianapolis Center
Tue 02:24:18 AM 39.6236 -83.7578 230° Southwest 197 227 8,000  Level Indianapolis Center
Tue 02:25:18 AM 39.5867 -83.8100 227° Southwest 196 226 8,000  Level Indianapolis Center
Tue 02:26:18 AM 39.5547 -83.8550 227° Southwest 199 229 8,000  Level Indianapolis Center
Tue 02:27:18 AM 39.5178 -83.9072 227° Southwest 197 227 8,000  Level Indianapolis Center
Tue 02:28:18 AM 39.4800 -83.9603 227° Southwest 197 227 8,000  Level Indianapolis Center
Tue 02:29:18 AM 39.4422 -84.0122 227° Southwest 196 226 8,000  Level Indianapolis Center
Tue 02:30:19 AM 39.4050 -84.0653 228° Southwest 197 227 8,000  Level Indianapolis Center
Tue 02:31:19 AM 39.3675 -84.1178 227° Southwest 197 227 8,000  Level Indianapolis Center
Tue 02:32:19 AM 39.3294 -84.1700 227° Southwest 198 228 8,000  Level Indianapolis Center
Tue 02:33:19 AM 39.2914 -84.2222 227° Southwest 198 228 8,000  Level Indianapolis Center
Tue 02:34:19 AM 39.2542 -84.2747 228° Southwest 197 227 8,000  Level Indianapolis Center
Tue 02:35:20 AM 39.2158 -84.3267 226° Southwest 197 227 8,000  Level Indianapolis Center
Tue 02:36:20 AM 39.1775 -84.3794 227° Southwest 199 229 8,000  Level Indianapolis Center
Tue 02:37:20 AM 39.1400 -84.4339 228° Southwest 201 231 8,000  Level Indianapolis Center
Tue 02:38:20 AM 39.1017 -84.4861 227° Southwest 200 230 8,000  Level Indianapolis Center
Tue 02:38:38 AM 39.0833 -84.5000 210° Southwest 199 229 8,000  Level Cincinnati TRACON
Tue 02:39:39 AM 39.0500 -84.5500 229° Southwest 198 228 8,000  Level Cincinnati TRACON
Tue 02:40:39 AM 39.0167 -84.6000 229° Southwest 199 229 8,000  Level Cincinnati TRACON
Tue 02:41:39 AM 38.9833 -84.6500 229° Southwest 196 226 8,000  Level Cincinnati TRACON
Tue 02:42:39 AM 38.9333 -84.7000 218° Southwest 195 224 8,000  Level Cincinnati TRACON
Tue 02:43:39 AM 38.9000 -84.7500 229° Southwest 194 223 8,000  Level Cincinnati TRACON
Tue 02:44:39 AM 38.8667 -84.8167 237° Southwest 194 223 8,000  Level Cincinnati TRACON
Tue 02:45:21 AM 38.8369 -84.8469 218° Southwest 195 224 8,000  Level Indianapolis Center
Tue 02:46:21 AM 38.8003 -84.8978 227° Southwest 194 223 8,000  Level Indianapolis Center
Tue 02:47:22 AM 38.7625 -84.9492 227° Southwest 195 224 8,000  Level Indianapolis Center
Tue 02:48:22 AM 38.7317 -84.9900 226° Southwest 192 221 8,000  Level Indianapolis Center
Tue 02:49:22 AM 38.6942 -85.0400 226° Southwest 193 222 8,000  Level Indianapolis Center
Tue 02:50:22 AM 38.6572 -85.0917 228° Southwest 194 223 8,000 -50 Level Indianapolis Center
Tue 02:51:22 AM 38.6253 -85.1475 234° Southwest 194 223 7,900 -50 Descending Indianapolis Center
Tue 02:52:22 AM 38.5931 -85.2050 234° Southwest 197 227 7,900  Level Indianapolis Center
Tue 02:53:23 AM 38.5642 -85.2589 236° Southwest 196 226 7,900 -50 Level Indianapolis Center
Tue 02:54:23 AM 38.5331 -85.3164 235° Southwest 195 224 7,800 -250 Descending Indianapolis Center
Tue 02:55:23 AM 38.4958 -85.3697 228° Southwest 200 230 7,400 -450 Descending Indianapolis Center
Tue 02:56:23 AM 38.4611 -85.4231 230° Southwest 197 227 6,900 -650 Descending Indianapolis Center
Tue 02:57:23 AM 38.4258 -85.4783 231° Southwest 199 229 6,100 -700 Descending Indianapolis Center
Tue 02:58:23 AM 38.3908 -85.5306 229° Southwest 195 224 5,500 -650 Descending Indianapolis Center
Tue 02:59:23 AM 38.3561 -85.5842 230° Southwest 194 223 4,800 -793 Descending Indianapolis Center
Tue 03:00:24 AM 38.3228 -85.6350 230° Southwest 191 220 3,900 -942 Descending Indianapolis Center
Tue 03:01:24 AM 38.2897 -85.6828 229° Southwest 185 213 2,900 -550 Descending Indianapolis Center
Tue 03:02:24 AM 38.2553 -85.7194 220° Southwest 173 199 2,800 -150 Descending Indianapolis Center
Tue 03:03:24 AM 38.2214 -85.7542 219° Southwest 170 196 2,600 -200 Descending Indianapolis Center
Tue 03:05:00 AM 38.1741 -85.7365 230° Southwest  Level Estimated
Tue 03:12:00 AM 38.1741 -85.7365 230° Southwest  Level Estimated

Login

Don't have an account? Register now (free) for customized features, flight alerts, and more!